sensor_id;sensor_type;location;lat;lon;timestamp;temperature;humidity
51884;DHT22;37915;53.254;6.598;2022-10-31T00:00:24;13.20;99.90
51884;DHT22;37915;53.254;6.598;2022-10-31T00:02:49;13.10;99.90
51884;DHT22;37915;53.254;6.598;2022-10-31T00:05:15;13.10;99.90
51884;DHT22;37915;53.254;6.598;2022-10-31T00:07:41;12.90;99.90
51884;DHT22;37915;53.254;6.598;2022-10-31T00:10:07;13.10;99.90
51884;DHT22;37915;53.254;6.598;2022-10-31T00:12:33;13.00;99.90
51884;DHT22;37915;53.254;6.598;2022-10-31T00:14:58;13.00;99.90
51884;DHT22;37915;53.254;6.598;2022-10-31T00:17:24;13.00;99.90
51884;DHT22;37915;53.254;6.598;2022-10-31T00:19:50;12.90;99.90
51884;DHT22;37915;53.254;6.598;2022-10-31T00:22:15;13.00;99.90
51884;DHT22;37915;53.254;6.598;2022-10-31T00:24:41;12.90;99.90
51884;DHT22;37915;53.254;6.598;2022-10-31T00:27:07;12.90;99.90
51884;DHT22;37915;53.254;6.598;2022-10-31T00:29:32;12.90;99.90
51884;DHT22;37915;53.254;6.598;2022-10-31T00:31:58;12.90;99.90
51884;DHT22;37915;53.254;6.598;2022-10-31T00:34:24;12.90;99.90
51884;DHT22;37915;53.254;6.598;2022-10-31T00:36:49;12.90;99.90
51884;DHT22;37915;53.254;6.598;2022-10-31T00:39:15;12.80;99.90
51884;DHT22;37915;53.254;6.598;2022-10-31T00:41:41;12.90;99.90
51884;DHT22;37915;53.254;6.598;2022-10-31T00:44:07;12.80;99.90
51884;DHT22;37915;53.254;6.598;2022-10-31T00:46:32;12.80;99.90
51884;DHT22;37915;53.254;6.598;2022-10-31T00:48:58;12.80;99.90
51884;DHT22;37915;53.254;6.598;2022-10-31T00:51:24;12.80;99.90
51884;DHT22;37915;53.254;6.598;2022-10-31T00:53:49;12.80;99.90
51884;DHT22;37915;53.254;6.598;2022-10-31T00:56:15;12.80;99.90
51884;DHT22;37915;53.254;6.598;2022-10-31T00:58:40;12.70;99.90
51884;DHT22;37915;53.254;6.598;2022-10-31T01:01:06;12.70;99.90
51884;DHT22;37915;53.254;6.598;2022-10-31T01:03:33;12.70;99.90
51884;DHT22;37915;53.254;6.598;2022-10-31T01:06:08;12.70;99.90
51884;DHT22;37915;53.254;6.598;2022-10-31T01:08:35;12.70;99.90
51884;DHT22;37915;53.254;6.598;2022-10-31T01:11:05;12.60;99.90
51884;DHT22;37915;53.254;6.598;2022-10-31T01:13:31;12.60;99.90
51884;DHT22;37915;53.254;6.598;2022-10-31T01:15:58;12.60;99.90
51884;DHT22;37915;53.254;6.598;2022-10-31T01:18:25;12.60;99.90
51884;DHT22;37915;53.254;6.598;2022-10-31T01:21:02;12.60;99.90
51884;DHT22;37915;53.254;6.598;2022-10-31T01:23:28;12.60;99.90
51884;DHT22;37915;53.254;6.598;2022-10-31T01:26:07;12.60;99.90
51884;DHT22;37915;53.254;6.598;2022-10-31T01:28:35;12.60;99.90
51884;DHT22;37915;53.254;6.598;2022-10-31T01:31:02;12.50;99.90
51884;DHT22;37915;53.254;6.598;2022-10-31T01:33:28;12.60;99.90
51884;DHT22;37915;53.254;6.598;2022-10-31T01:35:54;12.50;99.90
51884;DHT22;37915;53.254;6.598;2022-10-31T01:38:20;12.60;99.90
51884;DHT22;37915;53.254;6.598;2022-10-31T01:40:45;12.50;99.90
51884;DHT22;37915;53.254;6.598;2022-10-31T01:43:14;12.50;99.90
51884;DHT22;37915;53.254;6.598;2022-10-31T01:45:48;12.60;99.90
51884;DHT22;37915;53.254;6.598;2022-10-31T01:48:17;12.50;99.90
51884;DHT22;37915;53.254;6.598;2022-10-31T01:50:48;12.50;99.90
51884;DHT22;37915;53.254;6.598;2022-10-31T01:53:16;12.50;99.90
51884;DHT22;37915;53.254;6.598;2022-10-31T01:55:44;12.50;99.90
51884;DHT22;37915;53.254;6.598;2022-10-31T01:58:18;12.40;99.90
51884;DHT22;37915;53.254;6.598;2022-10-31T02:00:47;12.50;99.90
51884;DHT22;37915;53.254;6.598;2022-10-31T02:03:14;12.50;99.90
51884;DHT22;37915;53.254;6.598;2022-10-31T02:05:41;12.40;99.90
51884;DHT22;37915;53.254;6.598;2022-10-31T02:10:38;12.40;99.90
51884;DHT22;37915;53.254;6.598;2022-10-31T02:13:06;12.40;99.90
51884;DHT22;37915;53.254;6.598;2022-10-31T02:15:33;12.30;99.90
51884;DHT22;37915;53.254;6.598;2022-10-31T02:18:00;12.30;99.90
51884;DHT22;37915;53.254;6.598;2022-10-31T02:23:27;12.30;99.90
51884;DHT22;37915;53.254;6.598;2022-10-31T02:33:59;12.20;99.90
51884;DHT22;37915;53.254;6.598;2022-10-31T02:39:32;12.20;99.90
51884;DHT22;37915;53.254;6.598;2022-10-31T02:45:00;12.10;99.90
51884;DHT22;37915;53.254;6.598;2022-10-31T02:47:33;12.20;99.90
51884;DHT22;37915;53.254;6.598;2022-10-31T02:52:32;12.10;99.90
51884;DHT22;37915;53.254;6.598;2022-10-31T02:54:58;12.10;99.90
51884;DHT22;37915;53.254;6.598;2022-10-31T02:57:30;12.10;99.90
51884;DHT22;37915;53.254;6.598;2022-10-31T03:00:02;12.10;99.90
51884;DHT22;37915;53.254;6.598;2022-10-31T03:10:59;12.00;99.90
51884;DHT22;37915;53.254;6.598;2022-10-31T03:13:43;12.00;99.90
51884;DHT22;37915;53.254;6.598;2022-10-31T03:16:30;12.00;99.90
51884;DHT22;37915;53.254;6.598;2022-10-31T03:19:04;12.00;99.90
51884;DHT22;37915;53.254;6.598;2022-10-31T03:22:02;11.90;99.90
51884;DHT22;37915;53.254;6.598;2022-10-31T03:24:34;12.00;99.90
51884;DHT22;37915;53.254;6.598;2022-10-31T03:27:04;11.90;99.90
51884;DHT22;37915;53.254;6.598;2022-10-31T03:29:35;11.90;99.90
51884;DHT22;37915;53.254;6.598;2022-10-31T03:32:24;11.90;99.90
51884;DHT22;37915;53.254;6.598;2022-10-31T03:34:54;11.90;99.90
51884;DHT22;37915;53.254;6.598;2022-10-31T03:37:22;11.80;99.90
51884;DHT22;37915;53.254;6.598;2022-10-31T03:39:49;11.80;99.90
51884;DHT22;37915;53.254;6.598;2022-10-31T03:42:21;11.80;99.90
51884;DHT22;37915;53.254;6.598;2022-10-31T03:44:58;11.80;99.90
51884;DHT22;37915;53.254;6.598;2022-10-31T03:47:26;11.80;99.90
51884;DHT22;37915;53.254;6.598;2022-10-31T03:49:52;11.80;99.90
51884;DHT22;37915;53.254;6.598;2022-10-31T03:55:18;11.70;99.90
51884;DHT22;37915;53.254;6.598;2022-10-31T03:58:12;11.70;99.90
51884;DHT22;37915;53.254;6.598;2022-10-31T04:00:42;11.70;99.90
51884;DHT22;37915;53.254;6.598;2022-10-31T04:03:10;11.70;99.90
51884;DHT22;37915;53.254;6.598;2022-10-31T04:05:37;11.70;99.90
51884;DHT22;37915;53.254;6.598;2022-10-31T04:08:08;11.70;99.90
51884;DHT22;37915;53.254;6.598;2022-10-31T04:10:37;11.70;99.90
51884;DHT22;37915;53.254;6.598;2022-10-31T04:13:07;11.60;99.90
51884;DHT22;37915;53.254;6.598;2022-10-31T04:15:35;11.70;99.90
51884;DHT22;37915;53.254;6.598;2022-10-31T04:18:04;11.70;99.90
51884;DHT22;37915;53.254;6.598;2022-10-31T04:20:37;11.70;99.90
51884;DHT22;37915;53.254;6.598;2022-10-31T04:23:05;11.70;99.90
51884;DHT22;37915;53.254;6.598;2022-10-31T04:25:38;11.70;99.90
51884;DHT22;37915;53.254;6.598;2022-10-31T04:28:03;11.60;99.90
51884;DHT22;37915;53.254;6.598;2022-10-31T04:30:29;11.70;99.90
51884;DHT22;37915;53.254;6.598;2022-10-31T04:32:55;11.10;99.90
51884;DHT22;37915;53.254;6.598;2022-10-31T04:35:20;11.60;99.90
51884;DHT22;37915;53.254;6.598;2022-10-31T04:37:46;11.60;99.90
51884;DHT22;37915;53.254;6.598;2022-10-31T04:40:11;11.60;99.90
51884;DHT22;37915;53.254;6.598;2022-10-31T04:42:37;11.60;99.90
51884;DHT22;37915;53.254;6.598;2022-10-31T04:45:03;11.60;99.90
51884;DHT22;37915;53.254;6.598;2022-10-31T04:47:31;11.50;99.90
51884;DHT22;37915;53.254;6.598;2022-10-31T04:49:57;11.50;99.90
51884;DHT22;37915;53.254;6.598;2022-10-31T04:52:23;11.50;99.90
51884;DHT22;37915;53.254;6.598;2022-10-31T04:54:49;11.40;99.90
51884;DHT22;37915;53.254;6.598;2022-10-31T04:57:14;11.50;99.90
51884;DHT22;37915;53.254;6.598;2022-10-31T04:59:40;11.40;99.90
51884;DHT22;37915;53.254;6.598;2022-10-31T05:02:06;11.40;99.90
51884;DHT22;37915;53.254;6.598;2022-10-31T05:04:31;11.40;99.90
51884;DHT22;37915;53.254;6.598;2022-10-31T05:06:57;11.40;99.90
51884;DHT22;37915;53.254;6.598;2022-10-31T05:09:23;11.40;99.90
51884;DHT22;37915;53.254;6.598;2022-10-31T05:11:48;11.30;99.90
51884;DHT22;37915;53.254;6.598;2022-10-31T05:14:14;11.40;99.90
51884;DHT22;37915;53.254;6.598;2022-10-31T05:16:40;11.40;99.90
51884;DHT22;37915;53.254;6.598;2022-10-31T05:19:05;11.30;99.90
51884;DHT22;37915;53.254;6.598;2022-10-31T05:21:31;11.30;99.90
51884;DHT22;37915;53.254;6.598;2022-10-31T05:23:56;11.20;99.90
51884;DHT22;37915;53.254;6.598;2022-10-31T05:26:22;11.20;99.90
51884;DHT22;37915;53.254;6.598;2022-10-31T05:28:48;11.10;99.90
51884;DHT22;37915;53.254;6.598;2022-10-31T05:31:13;11.10;99.90
51884;DHT22;37915;53.254;6.598;2022-10-31T05:33:39;11.10;99.90
51884;DHT22;37915;53.254;6.598;2022-10-31T05:36:05;11.10;99.90
51884;DHT22;37915;53.254;6.598;2022-10-31T05:38:30;11.10;99.90
51884;DHT22;37915;53.254;6.598;2022-10-31T05:40:56;11.00;99.90
51884;DHT22;37915;53.254;6.598;2022-10-31T05:43:28;11.00;99.90
51884;DHT22;37915;53.254;6.598;2022-10-31T05:45:55;11.00;99.90
51884;DHT22;37915;53.254;6.598;2022-10-31T05:48:21;11.00;99.90
51884;DHT22;37915;53.254;6.598;2022-10-31T05:50:48;10.90;99.90
51884;DHT22;37915;53.254;6.598;2022-10-31T05:53:16;10.90;99.90
51884;DHT22;37915;53.254;6.598;2022-10-31T05:55:42;10.90;99.90
51884;DHT22;37915;53.254;6.598;2022-10-31T05:58:09;10.90;99.90
51884;DHT22;37915;53.254;6.598;2022-10-31T06:00:35;10.90;99.90
51884;DHT22;37915;53.254;6.598;2022-10-31T06:03:03;10.90;99.90
51884;DHT22;37915;53.254;6.598;2022-10-31T06:05:30;10.90;99.90
51884;DHT22;37915;53.254;6.598;2022-10-31T06:07:56;10.80;99.90
51884;DHT22;37915;53.254;6.598;2022-10-31T06:10:22;10.80;99.90
51884;DHT22;37915;53.254;6.598;2022-10-31T06:12:48;10.80;99.90
51884;DHT22;37915;53.254;6.598;2022-10-31T06:15:14;11.30;99.90
51884;DHT22;37915;53.254;6.598;2022-10-31T06:17:40;10.80;99.90
51884;DHT22;37915;53.254;6.598;2022-10-31T06:20:06;10.80;99.90
51884;DHT22;37915;53.254;6.598;2022-10-31T06:22:32;10.80;99.90
51884;DHT22;37915;53.254;6.598;2022-10-31T06:24:58;10.80;99.90
51884;DHT22;37915;53.254;6.598;2022-10-31T06:27:24;10.70;99.90
51884;DHT22;37915;53.254;6.598;2022-10-31T06:29:50;10.70;99.90
51884;DHT22;37915;53.254;6.598;2022-10-31T06:32:16;10.70;99.90
51884;DHT22;37915;53.254;6.598;2022-10-31T06:34:42;10.70;99.90
51884;DHT22;37915;53.254;6.598;2022-10-31T06:37:10;10.70;99.90
51884;DHT22;37915;53.254;6.598;2022-10-31T06:39:36;10.60;99.90
51884;DHT22;37915;53.254;6.598;2022-10-31T06:42:02;10.70;99.90
51884;DHT22;37915;53.254;6.598;2022-10-31T06:44:28;10.60;99.90
51884;DHT22;37915;53.254;6.598;2022-10-31T06:46:54;10.70;99.90
51884;DHT22;37915;53.254;6.598;2022-10-31T06:49:21;10.70;99.90
51884;DHT22;37915;53.254;6.598;2022-10-31T06:51:47;10.70;99.90
51884;DHT22;37915;53.254;6.598;2022-10-31T06:54:13;10.60;99.90
51884;DHT22;37915;53.254;6.598;2022-10-31T06:56:39;10.70;99.90
51884;DHT22;37915;53.254;6.598;2022-10-31T06:59:04;10.70;99.90
51884;DHT22;37915;53.254;6.598;2022-10-31T07:01:30;10.70;99.90
51884;DHT22;37915;53.254;6.598;2022-10-31T07:03:56;10.60;99.90
51884;DHT22;37915;53.254;6.598;2022-10-31T07:06:21;10.70;99.90
51884;DHT22;37915;53.254;6.598;2022-10-31T07:08:47;10.70;99.90
51884;DHT22;37915;53.254;6.598;2022-10-31T07:11:13;10.70;99.90
51884;DHT22;37915;53.254;6.598;2022-10-31T07:13:38;10.80;99.90
51884;DHT22;37915;53.254;6.598;2022-10-31T07:16:05;10.80;99.90
51884;DHT22;37915;53.254;6.598;2022-10-31T07:18:32;10.80;99.90
51884;DHT22;37915;53.254;6.598;2022-10-31T07:20:58;10.80;99.90
51884;DHT22;37915;53.254;6.598;2022-10-31T07:23:24;10.80;99.90
51884;DHT22;37915;53.254;6.598;2022-10-31T07:25:55;10.80;99.90
51884;DHT22;37915;53.254;6.598;2022-10-31T07:28:21;10.80;99.90
51884;DHT22;37915;53.254;6.598;2022-10-31T07:30:50;10.80;99.90
51884;DHT22;37915;53.254;6.598;2022-10-31T07:33:16;10.80;99.90
51884;DHT22;37915;53.254;6.598;2022-10-31T07:35:42;10.80;99.90
51884;DHT22;37915;53.254;6.598;2022-10-31T07:38:10;10.90;99.90
51884;DHT22;37915;53.254;6.598;2022-10-31T07:40:35;10.80;99.90
51884;DHT22;37915;53.254;6.598;2022-10-31T07:43:01;10.90;99.90
51884;DHT22;37915;53.254;6.598;2022-10-31T07:45:27;10.90;99.90
51884;DHT22;37915;53.254;6.598;2022-10-31T07:47:53;10.90;99.90
51884;DHT22;37915;53.254;6.598;2022-10-31T07:50:20;11.00;99.90
51884;DHT22;37915;53.254;6.598;2022-10-31T07:52:46;10.90;99.90
51884;DHT22;37915;53.254;6.598;2022-10-31T07:55:13;10.90;99.90
51884;DHT22;37915;53.254;6.598;2022-10-31T07:57:39;11.00;99.90
51884;DHT22;37915;53.254;6.598;2022-10-31T08:00:06;11.00;99.90
51884;DHT22;37915;53.254;6.598;2022-10-31T08:02:32;11.10;99.90
51884;DHT22;37915;53.254;6.598;2022-10-31T08:04:58;11.10;99.90
51884;DHT22;37915;53.254;6.598;2022-10-31T08:07:25;11.10;99.90
51884;DHT22;37915;53.254;6.598;2022-10-31T08:09:51;11.20;99.90
51884;DHT22;37915;53.254;6.598;2022-10-31T08:12:17;11.20;99.90
51884;DHT22;37915;53.254;6.598;2022-10-31T08:14:43;11.20;99.90
51884;DHT22;37915;53.254;6.598;2022-10-31T08:17:10;11.20;99.90
51884;DHT22;37915;53.254;6.598;2022-10-31T08:19:35;11.30;99.90
51884;DHT22;37915;53.254;6.598;2022-10-31T08:22:01;11.40;99.90
51884;DHT22;37915;53.254;6.598;2022-10-31T08:24:27;11.50;99.90
51884;DHT22;37915;53.254;6.598;2022-10-31T08:26:52;11.60;99.90
51884;DHT22;37915;53.254;6.598;2022-10-31T08:29:18;11.70;99.90
51884;DHT22;37915;53.254;6.598;2022-10-31T08:31:44;11.80;99.90
51884;DHT22;37915;53.254;6.598;2022-10-31T08:34:09;11.90;99.90
51884;DHT22;37915;53.254;6.598;2022-10-31T08:36:35;11.90;99.90
51884;DHT22;37915;53.254;6.598;2022-10-31T08:39:01;11.90;99.90
51884;DHT22;37915;53.254;6.598;2022-10-31T08:41:27;12.00;99.90
51884;DHT22;37915;53.254;6.598;2022-10-31T08:43:53;12.00;99.90
51884;DHT22;37915;53.254;6.598;2022-10-31T08:46:18;12.00;99.90
51884;DHT22;37915;53.254;6.598;2022-10-31T08:48:44;12.00;99.90
51884;DHT22;37915;53.254;6.598;2022-10-31T08:51:10;12.10;99.90
51884;DHT22;37915;53.254;6.598;2022-10-31T08:53:37;12.10;99.90
51884;DHT22;37915;53.254;6.598;2022-10-31T08:56:02;12.10;99.90
51884;DHT22;37915;53.254;6.598;2022-10-31T08:58:28;12.10;99.90
51884;DHT22;37915;53.254;6.598;2022-10-31T09:00:54;12.20;99.90
51884;DHT22;37915;53.254;6.598;2022-10-31T09:03:26;12.20;99.90
51884;DHT22;37915;53.254;6.598;2022-10-31T09:05:57;12.20;99.90
51884;DHT22;37915;53.254;6.598;2022-10-31T09:08:23;12.30;99.90
51884;DHT22;37915;53.254;6.598;2022-10-31T09:10:49;12.30;99.90
51884;DHT22;37915;53.254;6.598;2022-10-31T09:13:19;12.40;99.90
51884;DHT22;37915;53.254;6.598;2022-10-31T09:15:46;12.60;99.90
51884;DHT22;37915;53.254;6.598;2022-10-31T09:18:14;12.60;99.90
51884;DHT22;37915;53.254;6.598;2022-10-31T09:20:43;12.60;99.90
51884;DHT22;37915;53.254;6.598;2022-10-31T09:23:20;12.70;99.90
51884;DHT22;37915;53.254;6.598;2022-10-31T09:25:48;12.70;99.90
51884;DHT22;37915;53.254;6.598;2022-10-31T09:28:18;12.70;99.90
51884;DHT22;37915;53.254;6.598;2022-10-31T09:30:49;12.80;99.90
51884;DHT22;37915;53.254;6.598;2022-10-31T09:33:16;12.80;99.90
51884;DHT22;37915;53.254;6.598;2022-10-31T09:35:42;12.80;99.90
51884;DHT22;37915;53.254;6.598;2022-10-31T09:38:14;12.80;99.90
51884;DHT22;37915;53.254;6.598;2022-10-31T09:40:44;12.80;99.90
51884;DHT22;37915;53.254;6.598;2022-10-31T09:48:26;12.90;99.90
51884;DHT22;37915;53.254;6.598;2022-10-31T09:50:57;13.00;99.90
51884;DHT22;37915;53.254;6.598;2022-10-31T09:53:38;13.00;99.90
51884;DHT22;37915;53.254;6.598;2022-10-31T09:56:09;13.10;99.90
51884;DHT22;37915;53.254;6.598;2022-10-31T09:58:43;13.20;99.90
51884;DHT22;37915;53.254;6.598;2022-10-31T10:04:02;13.40;99.90
51884;DHT22;37915;53.254;6.598;2022-10-31T10:06:32;13.50;99.90
51884;DHT22;37915;53.254;6.598;2022-10-31T10:08:59;13.60;99.90
51884;DHT22;37915;53.254;6.598;2022-10-31T10:19:48;14.00;99.90
51884;DHT22;37915;53.254;6.598;2022-10-31T10:30:35;14.20;99.90
51884;DHT22;37915;53.254;6.598;2022-10-31T10:33:32;14.30;99.90
51884;DHT22;37915;53.254;6.598;2022-10-31T10:36:06;14.40;99.90
51884;DHT22;37915;53.254;6.598;2022-10-31T10:41:17;14.50;99.90
51884;DHT22;37915;53.254;6.598;2022-10-31T10:43:43;14.50;99.90
51884;DHT22;37915;53.254;6.598;2022-10-31T11:00:24;14.60;99.90
51884;DHT22;37915;53.254;6.598;2022-10-31T11:02:51;14.50;99.90
51884;DHT22;37915;53.254;6.598;2022-10-31T11:05:22;14.50;99.90
51884;DHT22;37915;53.254;6.598;2022-10-31T11:07:48;14.50;99.90
51884;DHT22;37915;53.254;6.598;2022-10-31T11:10:15;14.50;99.90
51884;DHT22;37915;53.254;6.598;2022-10-31T11:12:44;14.50;99.90
51884;DHT22;37915;53.254;6.598;2022-10-31T11:15:22;14.50;99.90
51884;DHT22;37915;53.254;6.598;2022-10-31T11:17:50;14.50;99.90
51884;DHT22;37915;53.254;6.598;2022-10-31T11:22:44;14.60;99.90
51884;DHT22;37915;53.254;6.598;2022-10-31T11:27:46;14.60;99.90
51884;DHT22;37915;53.254;6.598;2022-10-31T11:30:13;14.60;99.90
51884;DHT22;37915;53.254;6.598;2022-10-31T11:32:50;14.60;99.90
51884;DHT22;37915;53.254;6.598;2022-10-31T11:35:19;14.50;99.90
51884;DHT22;37915;53.254;6.598;2022-10-31T11:37:46;14.50;99.90
51884;DHT22;37915;53.254;6.598;2022-10-31T11:40:31;14.60;99.90
51884;DHT22;37915;53.254;6.598;2022-10-31T11:42:58;14.50;99.90
51884;DHT22;37915;53.254;6.598;2022-10-31T11:45:31;14.40;99.90
51884;DHT22;37915;53.254;6.598;2022-10-31T11:47:59;14.40;99.90
51884;DHT22;37915;53.254;6.598;2022-10-31T11:50:39;14.40;99.90
51884;DHT22;37915;53.254;6.598;2022-10-31T11:53:32;14.40;99.90
51884;DHT22;37915;53.254;6.598;2022-10-31T11:56:16;14.40;99.90
51884;DHT22;37915;53.254;6.598;2022-10-31T11:58:42;14.50;99.90
51884;DHT22;37915;53.254;6.598;2022-10-31T12:01:24;14.50;99.90
51884;DHT22;37915;53.254;6.598;2022-10-31T12:04:02;14.60;99.90
51884;DHT22;37915;53.254;6.598;2022-10-31T12:06:36;14.60;99.90
51884;DHT22;37915;53.254;6.598;2022-10-31T12:09:09;14.60;99.90
51884;DHT22;37915;53.254;6.598;2022-10-31T12:17:18;14.70;99.90
51884;DHT22;37915;53.254;6.598;2022-10-31T12:20:07;14.70;99.90
51884;DHT22;37915;53.254;6.598;2022-10-31T12:25:28;14.80;99.90
51884;DHT22;37915;53.254;6.598;2022-10-31T12:39:02;15.00;99.90
51884;DHT22;37915;53.254;6.598;2022-10-31T12:55:41;15.10;99.90
51884;DHT22;37915;53.254;6.598;2022-10-31T12:58:32;15.10;99.90
51884;DHT22;37915;53.254;6.598;2022-10-31T13:01:35;15.10;99.90
51884;DHT22;37915;53.254;6.598;2022-10-31T13:04:16;15.10;99.90
51884;DHT22;37915;53.254;6.598;2022-10-31T13:06:49;15.10;99.90
51884;DHT22;37915;53.254;6.598;2022-10-31T13:09:23;14.80;99.90
51884;DHT22;37915;53.254;6.598;2022-10-31T13:12:07;15.10;99.90
51884;DHT22;37915;53.254;6.598;2022-10-31T13:14:40;15.10;99.90
51884;DHT22;37915;53.254;6.598;2022-10-31T13:20:11;15.20;99.90
51884;DHT22;37915;53.254;6.598;2022-10-31T13:22:39;15.20;99.90
51884;DHT22;37915;53.254;6.598;2022-10-31T13:25:19;15.10;99.90
51884;DHT22;37915;53.254;6.598;2022-10-31T13:28:38;15.10;99.90
51884;DHT22;37915;53.254;6.598;2022-10-31T13:30:40;15.10;99.90
51884;DHT22;37915;53.254;6.598;2022-10-31T13:35:52;15.00;99.90
51884;DHT22;37915;53.254;6.598;2022-10-31T13:44:34;15.10;99.90
51884;DHT22;37915;53.254;6.598;2022-10-31T13:49:00;15.00;99.90
51884;DHT22;37915;53.254;6.598;2022-10-31T13:51:30;15.00;99.90
51884;DHT22;37915;53.254;6.598;2022-10-31T13:53:59;15.00;99.90
51884;DHT22;37915;53.254;6.598;2022-10-31T14:01:31;15.10;99.90
51884;DHT22;37915;53.254;6.598;2022-10-31T14:04:06;15.00;99.90
51884;DHT22;37915;53.254;6.598;2022-10-31T14:11:53;15.10;99.90
51884;DHT22;37915;53.254;6.598;2022-10-31T14:14:20;15.10;99.90
51884;DHT22;37915;53.254;6.598;2022-10-31T14:16:55;15.10;99.90
51884;DHT22;37915;53.254;6.598;2022-10-31T14:19:22;15.10;99.90
51884;DHT22;37915;53.254;6.598;2022-10-31T14:21:49;15.10;99.90
51884;DHT22;37915;53.254;6.598;2022-10-31T14:24:33;15.00;99.90
51884;DHT22;37915;53.254;6.598;2022-10-31T14:29:53;15.00;99.90
51884;DHT22;37915;53.254;6.598;2022-10-31T14:32:23;15.00;99.90
51884;DHT22;37915;53.254;6.598;2022-10-31T14:49:40;14.90;99.90
51884;DHT22;37915;53.254;6.598;2022-10-31T14:52:12;14.80;99.90
51884;DHT22;37915;53.254;6.598;2022-10-31T14:54:42;14.80;99.90
51884;DHT22;37915;53.254;6.598;2022-10-31T14:57:20;14.80;99.90
51884;DHT22;37915;53.254;6.598;2022-10-31T14:59:52;14.80;99.90
51884;DHT22;37915;53.254;6.598;2022-10-31T15:02:51;14.80;99.90
51884;DHT22;37915;53.254;6.598;2022-10-31T15:05:15;14.80;99.90
51884;DHT22;37915;53.254;6.598;2022-10-31T15:07:56;14.80;99.90
51884;DHT22;37915;53.254;6.598;2022-10-31T15:10:30;14.80;99.90
51884;DHT22;37915;53.254;6.598;2022-10-31T15:13:17;14.80;99.90
51884;DHT22;37915;53.254;6.598;2022-10-31T15:15:44;14.70;99.90
51884;DHT22;37915;53.254;6.598;2022-10-31T15:18:17;14.70;99.90
51884;DHT22;37915;53.254;6.598;2022-10-31T15:20:45;14.70;99.90
51884;DHT22;37915;53.254;6.598;2022-10-31T15:23:28;14.60;99.90
51884;DHT22;37915;53.254;6.598;2022-10-31T15:26:02;14.50;99.90
51884;DHT22;37915;53.254;6.598;2022-10-31T15:28:29;14.50;99.90
51884;DHT22;37915;53.254;6.598;2022-10-31T15:30:58;14.40;99.90
51884;DHT22;37915;53.254;6.598;2022-10-31T15:33:38;14.40;99.90
51884;DHT22;37915;53.254;6.598;2022-10-31T15:36:05;14.40;99.90
51884;DHT22;37915;53.254;6.598;2022-10-31T15:38:31;14.30;99.90
51884;DHT22;37915;53.254;6.598;2022-10-31T15:41:01;14.30;99.90
51884;DHT22;37915;53.254;6.598;2022-10-31T15:43:33;14.20;99.90
51884;DHT22;37915;53.254;6.598;2022-10-31T15:46:00;14.20;99.90
51884;DHT22;37915;53.254;6.598;2022-10-31T15:48:27;14.20;99.90
51884;DHT22;37915;53.254;6.598;2022-10-31T15:50:55;14.10;99.90
51884;DHT22;37915;53.254;6.598;2022-10-31T15:53:35;14.10;99.90
51884;DHT22;37915;53.254;6.598;2022-10-31T15:56:06;14.10;99.90
51884;DHT22;37915;53.254;6.598;2022-10-31T15:58:35;14.10;99.90
51884;DHT22;37915;53.254;6.598;2022-10-31T16:01:18;14.10;99.90
51884;DHT22;37915;53.254;6.598;2022-10-31T16:03:44;14.00;99.90
51884;DHT22;37915;53.254;6.598;2022-10-31T16:06:21;14.00;99.90
51884;DHT22;37915;53.254;6.598;2022-10-31T16:08:51;14.00;99.90
51884;DHT22;37915;53.254;6.598;2022-10-31T16:16:23;13.90;99.90
51884;DHT22;37915;53.254;6.598;2022-10-31T16:18:53;13.90;99.90
51884;DHT22;37915;53.254;6.598;2022-10-31T16:21:32;13.90;99.90
51884;DHT22;37915;53.254;6.598;2022-10-31T16:24:11;13.90;99.90
51884;DHT22;37915;53.254;6.598;2022-10-31T16:26:40;13.90;99.90
51884;DHT22;37915;53.254;6.598;2022-10-31T16:29:28;13.90;99.90
51884;DHT22;37915;53.254;6.598;2022-10-31T16:31:57;13.90;99.90
51884;DHT22;37915;53.254;6.598;2022-10-31T16:34:24;13.90;99.90
51884;DHT22;37915;53.254;6.598;2022-10-31T16:36:51;13.80;99.90
51884;DHT22;37915;53.254;6.598;2022-10-31T16:39:20;13.80;99.90
51884;DHT22;37915;53.254;6.598;2022-10-31T16:41:48;13.80;99.90
51884;DHT22;37915;53.254;6.598;2022-10-31T16:46:44;13.80;99.90
51884;DHT22;37915;53.254;6.598;2022-10-31T16:49:10;13.80;99.90
51884;DHT22;37915;53.254;6.598;2022-10-31T16:51:37;13.80;99.90
51884;DHT22;37915;53.254;6.598;2022-10-31T16:54:02;13.70;99.90
51884;DHT22;37915;53.254;6.598;2022-10-31T16:56:30;13.70;99.90
51884;DHT22;37915;53.254;6.598;2022-10-31T16:58:59;13.70;99.90
51884;DHT22;37915;53.254;6.598;2022-10-31T17:01:26;13.70;99.90
51884;DHT22;37915;53.254;6.598;2022-10-31T17:03:52;13.70;99.90
51884;DHT22;37915;53.254;6.598;2022-10-31T17:06:18;13.60;99.90
51884;DHT22;37915;53.254;6.598;2022-10-31T17:08:47;13.60;99.90
51884;DHT22;37915;53.254;6.598;2022-10-31T17:11:17;13.60;99.90
51884;DHT22;37915;53.254;6.598;2022-10-31T17:13:44;13.60;99.90
51884;DHT22;37915;53.254;6.598;2022-10-31T17:16:12;13.60;99.90
51884;DHT22;37915;53.254;6.598;2022-10-31T17:18:38;13.60;99.90
51884;DHT22;37915;53.254;6.598;2022-10-31T17:21:04;13.60;99.90
51884;DHT22;37915;53.254;6.598;2022-10-31T17:23:32;13.60;99.90
51884;DHT22;37915;53.254;6.598;2022-10-31T17:25:58;13.50;99.90
51884;DHT22;37915;53.254;6.598;2022-10-31T17:28:25;13.50;99.90
51884;DHT22;37915;53.254;6.598;2022-10-31T17:30:54;13.50;99.90
51884;DHT22;37915;53.254;6.598;2022-10-31T17:33:22;13.50;99.90
51884;DHT22;37915;53.254;6.598;2022-10-31T17:35:48;13.50;99.90
51884;DHT22;37915;53.254;6.598;2022-10-31T17:38:14;13.50;99.90
51884;DHT22;37915;53.254;6.598;2022-10-31T17:40:40;13.50;99.90
51884;DHT22;37915;53.254;6.598;2022-10-31T17:43:10;13.40;99.90
51884;DHT22;37915;53.254;6.598;2022-10-31T17:45:38;13.40;99.90
51884;DHT22;37915;53.254;6.598;2022-10-31T17:48:04;13.50;99.90
51884;DHT22;37915;53.254;6.598;2022-10-31T17:50:30;13.40;99.90
51884;DHT22;37915;53.254;6.598;2022-10-31T17:52:57;13.40;99.90
51884;DHT22;37915;53.254;6.598;2022-10-31T17:55:23;13.40;99.90
51884;DHT22;37915;53.254;6.598;2022-10-31T17:57:49;13.50;99.90
51884;DHT22;37915;53.254;6.598;2022-10-31T18:00:17;13.40;99.90
51884;DHT22;37915;53.254;6.598;2022-10-31T18:02:45;13.50;99.90
51884;DHT22;37915;53.254;6.598;2022-10-31T18:05:11;13.50;99.90
51884;DHT22;37915;53.254;6.598;2022-10-31T18:07:37;13.50;99.90
51884;DHT22;37915;53.254;6.598;2022-10-31T18:10:03;13.50;99.90
51884;DHT22;37915;53.254;6.598;2022-10-31T18:12:29;13.50;99.90
51884;DHT22;37915;53.254;6.598;2022-10-31T18:14:56;13.40;99.90
51884;DHT22;37915;53.254;6.598;2022-10-31T18:17:23;13.40;99.90
51884;DHT22;37915;53.254;6.598;2022-10-31T18:19:48;13.50;99.90
51884;DHT22;37915;53.254;6.598;2022-10-31T18:22:14;13.50;99.90
51884;DHT22;37915;53.254;6.598;2022-10-31T18:24:40;13.50;99.90